Hawaii METAR Reports

 

PHOG - Kahului, Hawaii, USA
Distance from station: WNW 8mi, 13km
Updated: Thu, 19-Apr-2018 1:54pm HST
Partly Cloudy
Partly Cloudy
 Wind from ENE
Wind: ENE 22 mph , 35 km/h, Gust: 32 mph , 52 km/h
Temperature: 81°F , 27°C
Heat Index: 85°F , 29°C
Dew Point: 70°F , 21°C
Humidity: 70%
Barometer: 29.99 inHg , 1015.6 hPa
Clouds: Partly Cloudy
Visibility: 10 miles , 16 km
Cloud details: Few Clouds 2000 ft
Partly Cloudy 3500 ft
Partly Cloudy 5000 ft
2018/04/19 23:54 PHOG 192354Z 07019G28KT 10SM FEW020 SCT035 SCT050 27/21 A2999 RMK AO2 PK WND 05029/2333 SLP160 T02720206 10278 20233 58016
PHJH - Lahaina/West Mau, Hawaii, USA
Distance from station: WNW 24mi, 39km
Updated: Thu, 19-Apr-2018 1:50pm HST
Overcast
Overcast
 Wind from NE
Wind: NE 12 mph , 19 km/h
Temperature: 77°F , 25°C
Dew Point: 68°F , 20°C
Humidity: 74%
Barometer: 30.03 inHg , 1016.9 hPa
Clouds: Overcast
Visibility: 15 miles , 24 km
Cloud details: Few Clouds 2000 ft
Few Clouds 3000 ft
Overcast 15000 ft
2018/04/19 23:50 PHJH 192350Z 05010KT 15SM FEW020 FEW030 OVC150 25/20 A3003
 
PHNY - Lanai City Airpo, Hawaii, USA
Distance from station: W 40mi, 65km
Updated: Thu, 19-Apr-2018 1:56pm HST
Few Clouds
Few Clouds
 Wind from NE
Wind: NE 8 mph , 13 km/h
Temperature: 75°F , 24°C
Dew Point: 66°F , 19°C
Humidity: 74%
Barometer: 30.05 inHg , 1017.6 hPa
Clouds: Few Clouds
Visibility: 10 miles , 16 km
Cloud details: Few Clouds 2100 ft
2018/04/19 23:56 PHNY 192356Z AUTO 04007KT 10SM FEW021 24/19 A3005 RMK AO2 SLP157 T02390189 10244 20211 58007
PHMK - Molokai, Hawaii, USA
Distance from station: WNW 55mi, 88km
Updated: Thu, 19-Apr-2018 1:54pm HST
Light rain, Partly cloudy
Light rain, Partly cloudy
 Wind from NNE
Wind: NNE 14 mph , 22 km/h, Gust: 22 mph , 35 km/h
Temperature: 75°F , 24°C
Dew Point: 70°F , 21°C
Humidity: 83%
Barometer: 30.02 inHg , 1016.6 hPa
Summary: Light Rain
Clouds: Partly Cloudy
Visibility: 10 miles , 16 km
Cloud details: Partly Cloudy 2000 ft
2018/04/19 23:54 PHMK 192354Z 03012G19KT 10SM -RA SCT020 24/21 A3002 RMK AO2 RAE13B32 SLP167 P0000 60000 T02390211 10250 20222 58013 $
 
PHKO - Kailua/Kona, Hawaii, USA
Distance from station: SSE 79mi, 128km
Updated: Thu, 19-Apr-2018 1:53pm HST
Partly Cloudy
Partly Cloudy
 Wind from WSW
Wind: WSW 8 mph , 13 km/h
Temperature: 81°F , 27°C
Heat Index: 84°F , 29°C
Dew Point: 68°F , 20°C
Humidity: 66%
Barometer: 29.96 inHg , 1014.6 hPa
Clouds: Partly Cloudy
Visibility: 10 miles , 16 km
Cloud details: Partly Cloudy 6000 ft
2018/04/19 23:53 PHKO 192353Z 24007KT 10SM SCT060 27/20 A2996 RMK AO2 SLP146 T02720200 10283 20250 58012
PHSF - Bradshaw Aaf/Haw, Hawaii, USA
Distance from station: SE 90mi, 145km
Updated: Thu, 19-Apr-2018 1:56pm HST
Mostly Cloudy
Mostly Cloudy
 Wind from W
Wind: W 12 mph , 19 km/h
Temperature: 64°F , 18°C
Dew Point: 54°F , 12°C
Humidity: 68%
Barometer: 30.30 inHg , 1026.1 hPa
Clouds: Mostly Cloudy
Visibility: 10 miles , 16 km
Cloud details: Partly Cloudy 1400 ft
Mostly Cloudy 2000 ft
Mostly Cloudy 10000 ft
2018/04/19 23:56 PHSF 192356Z 27010KT 10SM SCT014 BKN020 BKN100 18/12 A3030 RMK SLPNO 5////
 
PHNG - Kaneohe Mcas, Hawaii, USA
Distance from station: WNW 102mi, 164km
Updated: Thu, 19-Apr-2018 2:06pm HST
Mostly Cloudy
Mostly Cloudy
 Wind from ENE
Wind: ENE 8 mph , 13 km/h
Temperature: 77°F , 25°C
Dew Point: 72°F , 22°C
Humidity: 83%
Barometer: 30.01 inHg , 1016.3 hPa
Clouds: Mostly Cloudy
Visibility: 10 miles , 16 km
Cloud details: Partly Cloudy 1900 ft
Partly Cloudy 3400 ft
Mostly Cloudy 9500 ft
2018/04/20 00:06 PHNG 200006Z 07007KT 10SM SCT019 SCT034 BKN095 25/22 A3001 RMK AO2 T02500217 $
PHNL - Honolulu, Hawaii, USA
Distance from station: WNW 108mi, 174km
Updated: Thu, 19-Apr-2018 1:53pm HST
Mostly Cloudy
Mostly Cloudy
 Wind from NE
Wind: NE 14 mph , 22 km/h, Gust: 23 mph , 37 km/h
Temperature: 81°F , 27°C
Heat Index: 83°F , 28°C
Dew Point: 66°F , 19°C
Humidity: 62%
Barometer: 30.01 inHg , 1016.3 hPa
Clouds: Mostly Cloudy
Visibility: 10 miles , 16 km
Cloud details: Few Clouds 2500 ft
Partly Cloudy 4100 ft
Partly Cloudy 8000 ft
Mostly Cloudy 15000 ft
2018/04/19 23:53 PHNL 192353Z 05012G20KT 10SM FEW025 SCT041 SCT080 BKN150 27/19 A3001 RMK AO2 SLP163 VCSH E T02720189 10278 20244 58012
 
PHTO - Hilo, Hawaii, USA
Distance from station: SE 114mi, 183km
Updated: Thu, 19-Apr-2018 1:53pm HST
Clear
Clear
 Wind from E
Wind: E 13 mph , 20 km/h
Temperature: 81°F , 27°C
Heat Index: 85°F , 29°C
Dew Point: 70°F , 21°C
Humidity: 70%
Barometer: 30.01 inHg , 1016.3 hPa
Clouds: Clear
Visibility: 10 miles , 16 km
2018/04/19 23:53 PHTO 192353Z 10011KT 10SM CLR 27/21 A3001 RMK AO2 SLP162 T02670206 10272 20217 56016
PHJR - Kalaeloa, Hawaii, USA
Distance from station: WNW 117mi, 189km
Updated: Thu, 19-Apr-2018 1:53pm HST
Partly Cloudy
Partly Cloudy
 Wind from NE
Wind: NE 10 mph , 17 km/h, Gust: 20 mph , 31 km/h
Temperature: 81°F , 27°C
Heat Index: 83°F , 28°C
Dew Point: 66°F , 19°C
Humidity: 62%
Barometer: 30.02 inHg , 1016.6 hPa
Clouds: Partly Cloudy
Visibility: 10 miles , 16 km
Cloud details: Partly Cloudy 3100 ft
Partly Cloudy 3800 ft
2018/04/19 23:53 PHJR 192353Z 04009G17KT 10SM SCT031 SCT038 27/19 A3002 RMK AO2 SLP173 T02670194 10278 20233 58011
 
PHHI - Wheeler Afb/Oahu, Hawaii, USA
Distance from station: WNW 120mi, 193km
Updated: Thu, 19-Apr-2018 2:16pm HST
Mostly Cloudy
Mostly Cloudy
 Wind from E
Wind: E 8 mph , 13 km/h
Temperature: 75°F , 24°C
Dew Point: 66°F , 19°C
Humidity: 74%
Barometer: 30.03 inHg , 1016.9 hPa
Clouds: Mostly Cloudy
Visibility: 10 miles , 16 km
Cloud details: Mostly Cloudy 2300 ft
Mostly Cloudy 20000 ft
2018/04/20 00:16 PHHI 200016Z AUTO 08007KT 10SM BKN023 BKN200 24/19 A3003 RMK AO2 CIG 023V200 BKN023 V SCT SLP161 $
PHLI - Lihue/Kauai Is, Hawaii, USA
Distance from station: WNW 209mi, 336km
Updated: Thu, 19-Apr-2018 1:53pm HST
Overcast
Overcast
 Wind from NE
Wind: NE 14 mph , 22 km/h
Temperature: 77°F , 25°C
Dew Point: 70°F , 21°C
Humidity: 79%
Barometer: 30.07 inHg , 1018.3 hPa
Clouds: Overcast
Visibility: 10 miles , 16 km
Cloud details: Few Clouds 1700 ft
Mostly Cloudy 3400 ft
Overcast 4200 ft
2018/04/19 23:53 PHLI 192353Z 05012KT 10SM FEW017 BKN034 OVC042 25/21 A3007 RMK AO2 SLP180 T02500211 10261 20239 56012
 
PHBK - Barking Sands/Ka, Hawaii, USA
Distance from station: WNW 237mi, 382km
Updated: Thu, 19-Apr-2018 1:56pm HST
Clear
Clear
 Wind from WNW
Wind: WNW 7 mph , 11 km/h
Temperature: 75°F , 24°C
Dew Point: 68°F , 20°C
Humidity: 78%
Barometer: 30.02 inHg , 1016.6 hPa
Clouds: Clear
2018/04/19 23:56 PHBK 192356Z AUTO 30006KT CLR 24/20 A3002 RMK AO2 SLP166 T02440200 10261 20222 56013 $